Time;durP1;ratioP1;P1;durP2;ratioP2;P2;SDS_P1;SDS_P2;PMS_P1;PMS_P2;Temp;Humidity;BMP_temperature;BMP_pressure;BME280_temperature;BME280_humidity;BME280_pressure;Samples;Min_cycle;Max_cycle;Signal;HPM_P1;HPM_P2
2023/01/25 00:00:33;;;;;;;72.60;21.83;;;;;;;-1.40;100.00;98466.06;10334195;28;20226;-62
2023/01/25 00:05:34;;;;;;;75.07;22.10;;;;;;;-1.39;100.00;98470.34;10333486;28;20229;-62
2023/01/25 00:10:34;;;;;;;84.97;21.80;;;;;;;-1.38;100.00;98474.56;10333629;28;20193;-62
2023/01/25 00:15:34;;;;;;;102.43;23.27;;;;;;;-1.39;100.00;98469.47;10333323;28;20782;-62
2023/01/25 00:20:35;;;;;;;80.90;21.80;;;;;;;-1.41;100.00;98469.50;10333507;28;20213;-63
2023/01/25 00:25:35;;;;;;;117.10;23.63;;;;;;;-1.38;100.00;98471.16;10333082;28;20275;-63
2023/01/25 00:30:35;;;;;;;108.17;22.90;;;;;;;-1.37;100.00;98473.69;10333074;28;20276;-62
2023/01/25 00:35:37;;;;;;;169.37;24.30;;;;;;;-1.26;100.00;98463.13;10332593;28;20280;-63
2023/01/25 00:40:37;;;;;;;143.37;23.27;;;;;;;-1.36;100.00;98470.25;10315090;28;20216;-62
2023/01/25 00:45:39;;;;;;;127.83;22.97;;;;;;;-1.38;100.00;98471.16;10332514;28;20217;-64
2023/01/25 00:50:39;;;;;;;127.67;23.90;;;;;;;-1.36;100.00;98461.69;10332424;28;20651;-63
2023/01/25 00:55:40;;;;;;;78.53;21.23;;;;;;;-1.39;100.00;98466.91;10314349;28;20615;-63
2023/01/25 01:00:40;;;;;;;66.07;19.47;;;;;;;-1.37;100.00;98462.56;10314376;28;20250;-63
2023/01/25 01:05:41;;;;;;;39.70;14.70;;;;;;;-1.45;100.00;98465.34;10313701;28;20222;-62
2023/01/25 01:10:41;;;;;;;37.40;14.40;;;;;;;-1.38;100.00;98478.88;10313579;28;20282;-62
2023/01/25 01:15:42;;;;;;;39.93;13.23;;;;;;;-1.41;100.00;98473.81;10331149;28;20285;-62
2023/01/25 01:20:48;;;;;;;23.80;10.27;;;;;;;-1.25;100.00;98464.84;10331210;28;20232;-62
2023/01/25 01:25:49;;;;;;;21.90;9.43;;;;;;;-1.25;100.00;98449.41;10313248;28;20643;-63
2023/01/25 01:30:50;;;;;;;19.23;10.20;;;;;;;-1.21;100.00;98435.59;10313273;28;20186;-62
2023/01/25 01:35:50;;;;;;;26.87;10.93;;;;;;;-1.32;100.00;98414.44;10313044;28;20206;-64
2023/01/25 01:40:51;;;;;;;21.30;10.33;;;;;;;-1.30;100.00;98394.72;10330245;28;20224;-63
2023/01/25 01:45:57;;;;;;;25.93;10.77;;;;;;;-1.39;100.00;98380.34;10312602;28;20256;-64
2023/01/25 01:51:40;;;;;;;23.83;11.03;;;;;;;-1.39;100.00;98370.06;10312704;28;20273;-64
2023/01/25 01:56:58;;;;;;;23.20;11.13;;;;;;;-1.42;100.00;98359.88;10295954;28;20241;-63
2023/01/25 02:01:59;;;;;;;23.00;10.67;;;;;;;-1.31;100.00;98350.13;10311550;28;20303;-63
2023/01/25 02:07:10;;;;;;;21.77;9.90;;;;;;;-1.46;100.00;98335.97;10310876;28;20221;-63
2023/01/25 02:12:10;;;;;;;22.00;9.40;;;;;;;-1.26;100.00;98330.31;10312097;28;20204;-63
2023/01/25 02:17:11;;;;;;;19.13;9.37;;;;;;;-1.40;100.00;98324.69;10311276;28;20693;-65
2023/01/25 02:22:15;;;;;;;20.17;9.03;;;;;;;-1.47;100.00;98325.72;10311949;28;20189;-64
2023/01/25 02:27:15;;;;;;;18.67;9.53;;;;;;;-1.47;100.00;98326.59;10294300;28;20618;-64
2023/01/25 02:32:16;;;;;;;17.70;9.53;;;;;;;-1.36;100.00;98321.16;10310887;28;20189;-64
2023/01/25 02:37:16;;;;;;;19.93;9.63;;;;;;;-1.39;100.00;98318.66;10310242;28;20582;-64
2023/01/25 02:42:17;;;;;;;15.17;7.93;;;;;;;-1.31;100.00;98303.88;10328216;28;20503;-64
2023/01/25 02:47:17;;;;;;;19.00;8.20;;;;;;;-1.61;100.00;98300.41;10310739;28;20205;-64
2023/01/25 02:52:18;;;;;;;19.63;8.77;;;;;;;-1.71;100.00;98283.56;10310853;28;20674;-63
2023/01/25 02:57:18;;;;;;;19.43;8.40;;;;;;;-1.57;100.00;98278.88;10327838;28;20229;-62
2023/01/25 03:02:19;;;;;;;15.37;7.20;;;;;;;-1.54;100.00;98273.66;10327921;28;20272;-63
2023/01/25 03:07:20;;;;;;;15.20;7.43;;;;;;;-1.38;100.00;98260.38;10309842;28;20292;-64
2023/01/25 03:12:20;;;;;;;12.90;7.23;;;;;;;-1.37;100.00;98252.63;10310813;28;20277;-64
2023/01/25 03:17:21;;;;;;;14.67;7.63;;;;;;;-1.38;100.00;98248.34;10327307;28;20244;-64
2023/01/25 03:22:21;;;;;;;16.03;8.50;;;;;;;-1.57;100.00;98247.22;10317092;28;20241;-64
2023/01/25 03:27:23;;;;;;;16.60;7.50;;;;;;;-1.68;100.00;98247.53;10317557;28;20236;-64
2023/01/25 03:32:28;;;;;;;15.17;8.13;;;;;;;-1.61;100.00;98251.59;10318273;28;20188;-64
2023/01/25 03:37:30;;;;;;;16.57;8.40;;;;;;;-1.63;100.00;98243.09;10317163;28;20721;-63
2023/01/25 03:42:31;;;;;;;16.83;8.43;;;;;;;-1.38;100.00;98250.09;10317532;28;20194;-64
2023/01/25 03:47:32;;;;;;;18.00;6.83;;;;;;;-1.49;100.00;98240.97;10334696;28;20209;-63
2023/01/25 03:52:37;;;;;;;12.50;6.83;;;;;;;-1.57;100.00;98232.63;10316979;28;20720;-63
2023/01/25 03:57:38;;;;;;;39.93;15.20;;;;;;;-1.56;100.00;98223.19;10316414;28;20325;-63
2023/01/25 04:02:39;;;;;;;14.53;7.63;;;;;;;-1.50;100.00;98216.16;10317083;28;20196;-64
2023/01/25 04:07:41;;;;;;;10.73;6.37;;;;;;;-1.59;100.00;98221.56;10331809;28;20712;-64
2023/01/25 04:12:42;;;;;;;12.17;6.67;;;;;;;-1.73;100.00;98218.53;10332967;28;20220;-65
2023/01/25 04:17:43;;;;;;;15.60;7.23;;;;;;;-1.70;100.00;98214.16;10332072;28;20317;-64
2023/01/25 04:22:55;;;;;;;13.23;7.50;;;;;;;-1.72;100.00;98215.09;10333312;28;20205;-65
2023/01/25 04:28:00;;;;;;;15.37;7.63;;;;;;;-1.68;100.00;98222.66;10332296;28;20229;-65
2023/01/25 04:33:03;;;;;;;12.77;7.50;;;;;;;-1.75;100.00;98220.31;10333047;28;20194;-64
2023/01/25 04:38:04;;;;;;;11.33;6.67;;;;;;;-1.65;100.00;98214.88;10331820;28;20218;-64
2023/01/25 04:43:12;;;;;;;10.20;5.93;;;;;;;-1.68;100.00;98216.69;10332316;28;20182;-64
2023/01/25 04:48:14;;;;;;;12.53;7.17;;;;;;;-1.69;100.00;98215.00;10331829;28;20206;-64
2023/01/25 04:53:21;;;;;;;12.23;7.70;;;;;;;-1.74;100.00;98214.31;10331947;28;20598;-65
2023/01/25 04:58:22;;;;;;;18.77;8.50;;;;;;;-1.77;100.00;98222.09;10331287;28;20233;-63
2023/01/25 05:03:25;;;;;;;16.60;8.37;;;;;;;-1.69;100.00;98218.41;10421301;23;20247;-63
2023/01/25 05:08:26;;;;;;;17.60;8.90;;;;;;;-1.79;100.00;98222.13;10437099;28;20203;-62
2023/01/25 05:13:30;;;;;;;18.43;8.60;;;;;;;-1.70;100.00;98221.00;10436883;28;20214;-65
2023/01/25 05:18:41;;;;;;;15.33;8.70;;;;;;;-1.60;100.00;98217.31;10437052;28;20222;-65
2023/01/25 05:23:42;;;;;;;15.27;7.13;;;;;;;-1.65;100.00;98208.91;10436459;28;20232;-65
2023/01/25 05:28:42;;;;;;;11.13;6.77;;;;;;;-1.73;100.00;98203.13;10453144;28;20184;-64
2023/01/25 05:33:52;;;;;;;13.17;6.73;;;;;;;-1.77;100.00;98204.09;10436417;28;20203;-65
2023/01/25 05:38:54;;;;;;;13.10;7.27;;;;;;;-1.75;100.00;98198.03;10453521;28;21087;-63
2023/01/25 05:43:55;;;;;;;12.87;7.67;;;;;;;-1.88;100.00;98194.13;10435080;28;20212;-65
2023/01/25 05:48:57;;;;;;;12.90;6.83;;;;;;;-1.80;100.00;98184.47;10435597;28;20777;-64
2023/01/25 05:54:01;;;;;;;13.43;6.17;;;;;;;-1.97;100.00;98177.25;10434895;28;20216;-63
2023/01/25 05:59:02;;;;;;;11.37;6.17;;;;;;;-1.83;100.00;98179.44;10453477;28;20240;-64
2023/01/25 06:04:03;;;;;;;11.87;5.70;;;;;;;-1.93;100.00;98184.00;10410692;28;20319;-65
2023/01/25 06:09:04;;;;;;;14.13;5.43;;;;;;;-2.01;100.00;98184.16;10409974;28;20199;-63
2023/01/25 06:14:04;;;;;;;9.93;5.87;;;;;;;-2.04;100.00;98179.13;10409735;28;20289;-65
2023/01/25 06:19:06;;;;;;;10.93;5.97;;;;;;;-1.94;100.00;98173.75;10410087;28;20258;-65
2023/01/25 06:24:13;;;;;;;12.13;6.50;;;;;;;-1.96;100.00;98181.50;10410717;28;20216;-65
2023/01/25 06:29:13;;;;;;;14.37;6.60;;;;;;;-2.19;100.00;98182.97;10411077;28;20564;-64
2023/01/25 06:34:13;;;;;;;13.87;7.43;;;;;;;-2.19;100.00;98184.66;10410928;28;20632;-65
2023/01/25 06:39:14;;;;;;;13.67;6.63;;;;;;;-2.03;100.00;98192.81;10409459;28;20606;-66
2023/01/25 06:44:14;;;;;;;11.27;6.63;;;;;;;-2.05;100.00;98187.72;10410460;28;20252;-66
2023/01/25 06:49:15;;;;;;;15.27;7.63;;;;;;;-2.05;100.00;98186.88;10410728;28;20220;-66
2023/01/25 06:54:15;;;;;;;14.93;8.20;;;;;;;-2.03;100.00;98185.94;10413370;28;20223;-65
2023/01/25 06:59:15;;;;;;;24.73;13.63;;;;;;;-2.04;100.00;98183.44;10419194;28;20220;-65
2023/01/25 07:04:16;;;;;;;20.23;13.00;;;;;;;-2.12;100.00;98169.97;10449771;28;20377;-64
2023/01/25 07:09:22;;;;;;;12.87;7.90;;;;;;;-1.94;100.00;98160.91;10460345;28;20187;-65
2023/01/25 07:14:22;;;;;;;13.23;6.87;;;;;;;-1.81;100.00;98162.22;10459692;28;20698;-64
2023/01/25 07:19:23;;;;;;;10.90;6.47;;;;;;;-1.81;100.00;98155.38;10459349;28;20222;-64
2023/01/25 07:24:25;;;;;;;18.37;8.87;;;;;;;-2.08;100.00;98151.00;10445769;28;20291;-65
2023/01/25 07:29:26;;;;;;;13.63;7.57;;;;;;;-1.98;100.00;98134.47;10459096;28;20283;-65
2023/01/25 07:34:27;;;;;;;15.73;7.27;;;;;;;-2.42;100.00;98134.81;10449073;28;20713;-65
2023/01/25 07:39:28;;;;;;;14.53;8.70;;;;;;;-2.20;100.00;98129.09;10434434;28;20277;-65
2023/01/25 07:44:28;;;;;;;12.47;8.43;;;;;;;-2.08;100.00;98123.63;10431037;28;20239;-65
2023/01/25 07:49:40;;;;;;;10.60;6.97;;;;;;;-2.09;100.00;98114.22;10399219;28;20192;-65
2023/01/25 07:54:41;;;;;;;13.67;7.80;;;;;;;-2.29;100.00;98113.97;10445078;28;20208;-65
2023/01/25 07:59:42;;;;;;;15.47;9.03;;;;;;;-1.88;100.00;98110.22;10418633;28;20231;-62
2023/01/25 08:04:43;;;;;;;16.53;9.17;;;;;;;-1.72;100.00;98105.44;10442756;28;20232;-65
2023/01/25 08:09:43;;;;;;;18.90;8.83;;;;;;;-2.00;100.00;98100.28;10443190;28;20219;-62
2023/01/25 08:14:44;;;;;;;16.43;8.80;;;;;;;-1.70;100.00;98077.16;10423901;28;20212;-63
2023/01/25 08:19:44;;;;;;;14.97;8.90;;;;;;;-1.42;100.00;98066.88;10413298;28;20217;-64
2023/01/25 08:24:44;;;;;;;17.97;8.47;;;;;;;-1.14;100.00;98047.97;10428312;28;20291;-64
2023/01/25 08:29:45;;;;;;;14.07;7.47;;;;;;;-0.97;100.00;98043.09;10425007;28;20242;-66
2023/01/25 08:34:46;;;;;;;16.60;8.00;;;;;;;-1.05;100.00;98037.38;10439880;28;20220;-65
2023/01/25 08:39:46;;;;;;;13.63;7.90;;;;;;;-0.96;100.00;98024.22;10451859;28;20227;-64
2023/01/25 08:44:47;;;;;;;15.67;8.20;;;;;;;-0.76;100.00;98028.66;10449988;28;20580;-65
2023/01/25 08:49:47;;;;;;;16.53;9.03;;;;;;;-0.72;100.00;98031.97;10453136;28;20543;-65
2023/01/25 08:54:48;;;;;;;15.87;9.43;;;;;;;-0.48;100.00;98044.88;10452318;28;20204;-64
2023/01/25 08:59:48;;;;;;;19.63;9.80;;;;;;;-0.49;100.00;98048.31;10443893;28;20215;-65
2023/01/25 09:04:48;;;;;;;15.27;8.80;;;;;;;-0.63;100.00;98034.22;10447259;28;20250;-65
2023/01/25 09:09:49;;;;;;;17.10;8.70;;;;;;;-0.55;100.00;98037.38;10423764;28;20279;-65
2023/01/25 09:14:49;;;;;;;16.37;9.87;;;;;;;-0.62;100.00;98028.19;10424072;28;20230;-63
2023/01/25 09:19:49;;;;;;;15.83;7.93;;;;;;;-0.78;100.00;98033.03;10423455;28;20224;-65
2023/01/25 09:24:52;;;;;;;17.07;8.50;;;;;;;-0.60;100.00;98041.00;10410315;28;20242;-64
2023/01/25 09:29:53;;;;;;;15.33;8.43;;;;;;;-0.68;100.00;98030.97;10437785;28;20769;-65
2023/01/25 09:34:54;;;;;;;17.13;8.60;;;;;;;-0.53;100.00;98029.59;10423693;28;20578;-66
2023/01/25 09:39:54;;;;;;;20.20;11.03;;;;;;;-0.41;100.00;98031.72;10424543;28;20208;-65
2023/01/25 09:45:12;;;;;;;15.87;8.00;;;;;;;-0.64;100.00;98021.41;10409156;28;20230;-66
2023/01/25 09:50:25;;;;;;;21.53;11.63;;;;;;;-0.45;100.00;98011.28;10409385;28;20607;-66
2023/01/25 09:55:27;;;;;;;15.73;9.23;;;;;;;-0.40;100.00;98007.66;10409251;28;20211;-65
2023/01/25 10:00:41;;;;;;;17.50;9.23;;;;;;;-0.01;100.00;98003.66;10392553;28;20220;-65
2023/01/25 10:05:44;;;;;;;52.80;26.00;;;;;;;-0.08;100.00;98002.19;10423697;28;20203;-65
2023/01/25 10:10:45;;;;;;;23.50;13.57;;;;;;;-0.13;100.00;97998.97;10449196;28;20188;-65
2023/01/25 10:15:49;;;;;;;15.93;10.70;;;;;;;0.03;100.00;98004.34;10400543;28;20191;-66
2023/01/25 10:20:57;;;;;;;14.93;8.77;;;;;;;-0.08;100.00;97997.88;10441686;28;20600;-65
2023/01/25 10:25:59;;;;;;;17.73;9.27;;;;;;;-0.17;100.00;97997.38;10449490;28;20227;-65
2023/01/25 10:31:07;;;;;;;15.67;8.30;;;;;;;-0.33;100.00;97992.81;10449327;28;20212;-67
2023/01/25 10:36:15;;;;;;;18.77;10.73;;;;;;;-0.17;100.00;97982.78;10432501;28;20196;-66
2023/01/25 10:41:19;;;;;;;28.70;12.37;;;;;;;-0.05;100.00;97973.75;10418150;28;20270;-67
2023/01/25 10:46:24;;;;;;;17.93;10.00;;;;;;;-0.11;100.00;97968.81;10390346;28;20577;-65
2023/01/25 10:51:31;;;;;;;18.03;10.17;;;;;;;0.13;100.00;97959.31;10390169;28;20233;-67
2023/01/25 10:56:33;;;;;;;22.60;11.53;;;;;;;0.13;100.00;97942.09;10408753;28;20196;-68
2023/01/25 11:01:35;;;;;;;19.30;10.03;;;;;;;0.25;100.00;97933.06;10407373;28;20240;-67
2023/01/25 11:06:47;;;;;;;20.97;10.73;;;;;;;0.10;100.00;97919.03;10411863;23;20240;-68
2023/01/25 11:11:55;;;;;;;19.80;10.57;;;;;;;0.24;100.00;97917.66;10426101;28;20191;-68
2023/01/25 11:16:57;;;;;;;16.40;10.20;;;;;;;0.05;100.00;97900.34;10411955;28;20904;-68
2023/01/25 11:21:59;;;;;;;20.47;10.77;;;;;;;-0.04;100.00;97893.84;10439024;28;20661;-68
2023/01/25 11:27:20;;;;;;;15.93;9.33;;;;;;;-0.12;100.00;97890.72;10451940;28;20204;-69
2023/01/25 11:32:23;;;;;;;16.70;10.03;;;;;;;0.30;100.00;97886.47;10408396;28;20655;-69
2023/01/25 11:37:46;;;;;;;15.80;9.83;;;;;;;0.41;100.00;97871.38;10389753;28;20224;-69
2023/01/25 11:43:07;;;;;;;15.97;9.87;;;;;;;0.82;100.00;97871.34;10382027;28;20691;-68
2023/01/25 11:48:21;;;;;;;17.73;9.60;;;;;;;1.10;100.00;97861.56;10413446;28;20271;-69
2023/01/25 11:53:34;;;;;;;15.80;9.60;;;;;;;0.97;100.00;97844.03;10414951;28;20217;-69
2023/01/25 11:58:37;;;;;;;12.77;8.37;;;;;;;0.66;100.00;97829.94;10405606;28;20643;-70
2023/01/25 12:03:57;;;;;;;18.93;10.17;;;;;;;0.69;100.00;97822.06;10431251;28;20286;-68
2023/01/25 12:09:18;;;;;;;17.13;9.93;;;;;;;0.66;100.00;97822.19;10432444;28;20203;-68
2023/01/25 12:14:57;;;;;;;18.83;10.73;;;;;;;0.41;100.00;97812.09;10411167;28;20201;-68
2023/01/25 12:20:20;;;;;;;17.33;10.00;;;;;;;0.48;100.00;97792.06;10382616;28;20230;-68
2023/01/25 12:25:59;;;;;;;19.17;10.97;;;;;;;0.41;100.00;97777.75;10408255;28;20224;-68
2023/01/25 12:31:23;;;;;;;18.17;10.03;;;;;;;0.58;100.00;97775.25;10417505;28;20208;-68
2023/01/25 12:36:30;;;;;;;18.77;9.90;;;;;;;0.51;100.00;97768.72;10426937;28;20300;-69
2023/01/25 12:41:52;;;;;;;17.57;9.87;;;;;;;0.65;100.00;97750.88;10411729;28;20303;-68
2023/01/25 12:46:58;;;;;;;25.23;11.93;;;;;;;0.60;100.00;97741.69;10429382;28;20204;-68
2023/01/25 12:52:00;;;;;;;22.57;12.23;;;;;;;0.35;100.00;97740.19;10394853;28;20969;-68
2023/01/25 12:57:14;;;;;;;23.57;12.23;;;;;;;0.44;100.00;97737.22;10393786;28;20221;-68
2023/01/25 13:02:41;;;;;;;20.17;11.60;;;;;;;0.38;100.00;97721.19;10394509;28;20203;-67
2023/01/25 13:07:55;;;;;;;22.87;12.27;;;;;;;-0.07;100.00;97726.53;10393462;28;20272;-66
2023/01/25 13:13:03;;;;;;;23.10;12.73;;;;;;;0.00;100.00;97721.97;10411214;28;20216;-66
2023/01/25 13:18:29;;;;;;;24.50;13.17;;;;;;;0.29;100.00;97718.13;10393778;28;20711;-65
2023/01/25 13:23:42;;;;;;;25.10;13.50;;;;;;;-0.11;100.00;97712.09;10408510;28;20216;-65
2023/01/25 13:28:45;;;;;;;26.80;14.47;;;;;;;-0.39;100.00;97704.72;10409790;28;20188;-65
2023/01/25 13:33:46;;;;;;;33.10;13.93;;;;;;;-0.44;100.00;97704.91;10410440;28;20212;-65
2023/01/25 13:38:46;;;;;;;35.03;16.13;;;;;;;-0.32;100.00;97697.56;10408700;28;20224;-64
2023/01/25 13:43:47;;;;;;;32.90;16.50;;;;;;;-0.17;100.00;97702.06;10409773;28;20635;-64
2023/01/25 13:48:54;;;;;;;34.63;17.53;;;;;;;-0.47;100.00;97691.34;10391389;28;20180;-64
2023/01/25 13:53:57;;;;;;;34.27;16.67;;;;;;;-0.31;100.00;97694.09;10390993;28;20209;-64
2023/01/25 13:58:57;;;;;;;36.93;16.77;;;;;;;-0.48;100.00;97685.34;10413790;28;20221;-65
2023/01/25 14:04:01;;;;;;;37.60;17.33;;;;;;;-0.36;100.00;97677.09;10423846;28;20229;-64
2023/01/25 14:09:06;;;;;;;36.90;16.43;;;;;;;-0.43;100.00;97680.84;10421753;28;20672;-64
2023/01/25 14:14:15;;;;;;;34.43;15.37;;;;;;;-0.39;100.00;97678.97;10427322;28;20207;-64
2023/01/25 14:19:30;;;;;;;37.33;14.77;;;;;;;-0.40;100.00;97667.84;10422561;28;20306;-65
2023/01/25 14:24:30;;;;;;;34.03;15.23;;;;;;;-0.21;100.00;97661.91;10438660;28;20217;-64
2023/01/25 14:29:33;;;;;;;38.60;15.77;;;;;;;-0.31;100.00;97661.47;10408286;28;20177;-64
2023/01/25 14:34:33;;;;;;;36.20;16.13;;;;;;;-0.45;100.00;97650.94;10408757;28;20699;-64
2023/01/25 14:39:33;;;;;;;45.30;17.33;;;;;;;-0.41;100.00;97648.16;10408130;28;20220;-64
2023/01/25 14:44:34;;;;;;;37.50;16.63;;;;;;;-0.44;100.00;97653.44;10408655;28;20269;-64
2023/01/25 14:49:34;;;;;;;41.63;18.23;;;;;;;-0.51;100.00;97651.19;10407823;28;20193;-64
2023/01/25 14:54:37;;;;;;;39.33;16.90;;;;;;;-0.54;100.00;97636.69;10407707;28;20562;-64
2023/01/25 14:59:44;;;;;;;35.70;15.50;;;;;;;-0.49;100.00;97636.50;10405161;28;20298;-64
2023/01/25 15:04:52;;;;;;;36.40;17.97;;;;;;;-0.52;100.00;97616.91;10425084;28;20233;-64
2023/01/25 15:10:03;;;;;;;40.67;18.73;;;;;;;-0.54;100.00;97613.53;10399578;28;20273;-64
2023/01/25 15:15:17;;;;;;;36.97;17.93;;;;;;;-0.49;100.00;97615.91;10392480;28;20211;-64
2023/01/25 15:20:35;;;;;;;39.20;18.43;;;;;;;-0.64;100.00;97607.13;10416033;28;20220;-64
2023/01/25 15:25:49;;;;;;;37.87;18.33;;;;;;;-0.65;100.00;97601.13;10414867;28;20204;-64
2023/01/25 15:30:50;;;;;;;39.60;18.57;;;;;;;-0.71;100.00;97593.66;10413932;28;20225;-64
2023/01/25 15:35:51;;;;;;;40.13;18.77;;;;;;;-0.75;100.00;97595.53;10383881;28;20212;-64
2023/01/25 15:40:52;;;;;;;34.57;16.23;;;;;;;-0.80;100.00;97589.72;10411891;28;20215;-65
2023/01/25 15:45:55;;;;;;;33.17;16.83;;;;;;;-0.87;100.00;97575.47;10414255;28;20207;-65
2023/01/25 15:50:56;;;;;;;33.00;16.77;;;;;;;-0.94;100.00;97572.31;10388576;28;20643;-65
2023/01/25 15:55:59;;;;;;;43.53;17.63;;;;;;;-0.95;100.00;97565.50;10414486;28;20222;-65
2023/01/25 16:01:00;;;;;;;46.23;20.47;;;;;;;-0.99;100.00;97569.09;10413033;28;20708;-65
2023/01/25 16:06:24;;;;;;;48.07;21.73;;;;;;;-1.01;100.00;97562.34;10413157;28;20290;-64
2023/01/25 16:11:25;;;;;;;51.57;22.93;;;;;;;-1.08;100.00;97560.03;10414061;28;20188;-64
2023/01/25 16:16:26;;;;;;;66.40;26.13;;;;;;;-1.11;100.00;97559.31;10413074;28;20242;-64
2023/01/25 16:21:26;;;;;;;55.37;22.57;;;;;;;-1.11;100.00;97557.59;10413740;28;20216;-65
2023/01/25 16:26:27;;;;;;;61.67;29.03;;;;;;;-1.05;100.00;97555.69;10411821;28;20212;-65
2023/01/25 16:31:28;;;;;;;66.13;23.67;;;;;;;-1.06;100.00;97548.84;10419798;28;20185;-65
2023/01/25 16:36:30;;;;;;;71.03;25.23;;;;;;;-1.13;100.00;97545.72;10415875;28;20222;-64
2023/01/25 16:41:31;;;;;;;70.60;22.63;;;;;;;-1.17;100.00;97546.72;10430313;28;20211;-65
2023/01/25 16:46:32;;;;;;;58.37;21.63;;;;;;;-1.16;100.00;97536.38;10428878;28;20290;-64
2023/01/25 16:51:32;;;;;;;92.30;24.20;;;;;;;-1.35;100.00;97525.16;10430468;28;20201;-64
2023/01/25 16:56:32;;;;;;;68.17;24.63;;;;;;;-1.25;100.00;97516.19;10427182;28;20867;-65
2023/01/25 17:01:33;;;;;;;86.87;27.83;;;;;;;-1.17;100.00;97518.44;10416562;28;20219;-65
2023/01/25 17:06:36;;;;;;;78.80;26.83;;;;;;;-1.18;100.00;97519.34;10424218;28;20803;-65
2023/01/25 17:11:37;;;;;;;90.90;30.33;;;;;;;-1.22;100.00;97523.78;10430166;28;20245;-65
2023/01/25 17:16:37;;;;;;;78.47;26.37;;;;;;;-1.21;100.00;97522.03;10427457;28;20265;-65
2023/01/25 17:21:38;;;;;;;78.30;25.50;;;;;;;-1.23;100.00;97500.72;10431147;28;20192;-65
2023/01/25 17:26:39;;;;;;;66.83;23.60;;;;;;;-1.18;100.00;97501.34;10408832;28;20223;-64
2023/01/25 17:31:40;;;;;;;74.50;25.20;;;;;;;-1.27;100.00;97500.84;10393368;28;20197;-64
2023/01/25 17:36:42;;;;;;;60.73;23.67;;;;;;;-1.36;100.00;97490.06;10409183;28;20217;-63
2023/01/25 17:41:47;;;;;;;44.43;23.27;;;;;;;-1.59;100.00;97486.75;10426745;28;20200;-64
2023/01/25 17:46:47;;;;;;;44.50;21.37;;;;;;;-1.37;100.00;97460.97;10422030;28;20303;-64
2023/01/25 17:51:48;;;;;;;45.70;21.33;;;;;;;-1.16;100.00;97456.69;10411518;28;20284;-63
2023/01/25 17:56:48;;;;;;;40.27;20.73;;;;;;;-1.39;100.00;97438.81;10410921;28;20208;-63
2023/01/25 18:01:49;;;;;;;45.77;22.90;;;;;;;-1.48;100.00;97440.88;10411208;28;20554;-64
2023/01/25 18:06:49;;;;;;;39.13;21.17;;;;;;;-1.36;100.00;97431.81;10410308;28;20322;-64
2023/01/25 18:11:50;;;;;;;39.27;21.57;;;;;;;-1.29;100.00;97415.25;10410400;28;20275;-64
2023/01/25 18:16:50;;;;;;;47.93;24.70;;;;;;;-1.30;100.00;97413.56;10409358;28;20219;-64
2023/01/25 18:21:50;;;;;;;89.07;41.43;;;;;;;-1.24;100.00;97409.06;10410050;28;20660;-64
2023/01/25 18:26:53;;;;;;;77.80;31.57;;;;;;;-1.30;100.00;97403.28;10409623;28;20216;-64
2023/01/25 18:31:54;;;;;;;76.40;29.03;;;;;;;-1.29;100.00;97414.41;10409956;28;20196;-64
2023/01/25 18:36:58;;;;;;;61.27;25.63;;;;;;;-1.36;100.00;97412.97;10408895;28;20305;-64
2023/01/25 18:41:58;;;;;;;47.73;22.33;;;;;;;-1.18;100.00;97394.22;10409572;28;20200;-63
2023/01/25 18:46:58;;;;;;;45.17;21.30;;;;;;;-0.97;100.00;97394.16;10408580;28;20295;-64
2023/01/25 18:51:59;;;;;;;40.80;20.00;;;;;;;-1.05;100.00;97385.97;10409151;28;20188;-63
2023/01/25 18:56:59;;;;;;;37.10;19.37;;;;;;;-1.03;100.00;97381.56;10388368;28;20310;-63
2023/01/25 19:01:59;;;;;;;51.20;23.10;;;;;;;-1.17;100.00;97382.19;10425821;28;20262;-64
2023/01/25 19:07:00;;;;;;;70.17;26.80;;;;;;;-1.32;100.00;97374.25;10426802;28;20236;-63
2023/01/25 19:12:00;;;;;;;70.10;27.87;;;;;;;-1.38;100.00;97368.53;10433451;28;20847;-63
2023/01/25 19:17:01;;;;;;;68.77;26.73;;;;;;;-1.37;100.00;97372.78;10427055;28;20216;-63
2023/01/25 19:22:01;;;;;;;80.50;28.53;;;;;;;-1.44;100.00;97370.47;10408219;28;20192;-63
2023/01/25 19:27:02;;;;;;;93.53;28.83;;;;;;;-1.45;100.00;97366.22;10407949;28;20296;-63
2023/01/25 19:32:02;;;;;;;89.80;27.70;;;;;;;-1.48;100.00;97350.94;10408695;28;20222;-63
2023/01/25 19:37:03;;;;;;;90.33;29.33;;;;;;;-1.50;100.00;97345.03;10407905;28;20220;-62
2023/01/25 19:42:05;;;;;;;79.37;27.70;;;;;;;-1.48;100.00;97338.09;10413932;28;20218;-63
2023/01/25 19:47:05;;;;;;;76.20;26.73;;;;;;;-1.50;100.00;97339.06;10407597;28;20216;-62
2023/01/25 19:52:06;;;;;;;87.43;29.80;;;;;;;-1.52;100.00;97331.41;10408322;28;20595;-63
2023/01/25 19:57:06;;;;;;;77.73;25.90;;;;;;;-1.56;100.00;97324.75;10407406;28;21276;-63
2023/01/25 20:02:10;;;;;;;77.10;25.73;;;;;;;-1.55;100.00;97331.53;10410296;28;20320;-63
2023/01/25 20:07:10;;;;;;;88.27;29.53;;;;;;;-1.40;100.00;97334.38;10396939;28;20264;-64
2023/01/25 20:12:10;;;;;;;97.53;29.77;;;;;;;-1.51;100.00;97333.09;10415041;28;20660;-63
2023/01/25 20:17:11;;;;;;;81.07;26.30;;;;;;;-1.22;100.00;97336.13;10414691;28;20576;-64
2023/01/25 20:22:12;;;;;;;79.03;27.33;;;;;;;-1.44;100.00;97324.22;10414084;28;20219;-63
2023/01/25 20:27:12;;;;;;;82.03;29.70;;;;;;;-1.18;100.00;97324.81;10414083;28;20744;-63
2023/01/25 20:32:13;;;;;;;81.77;27.13;;;;;;;-1.37;100.00;97309.34;10414223;28;20184;-63
2023/01/25 20:37:13;;;;;;;72.93;26.23;;;;;;;-1.29;100.00;97306.44;10413259;28;20217;-63
2023/01/25 20:42:14;;;;;;;52.23;21.63;;;;;;;-1.36;100.00;97293.03;10413984;28;20195;-63
2023/01/25 20:47:14;;;;;;;53.80;21.93;;;;;;;-1.45;100.00;97286.56;10412756;28;20276;-63
2023/01/25 20:52:14;;;;;;;70.93;25.97;;;;;;;-1.63;100.00;97284.81;10413812;28;20196;-63
2023/01/25 20:57:15;;;;;;;53.60;23.80;;;;;;;-1.43;100.00;97271.09;10414407;28;20400;-63
2023/01/25 21:02:15;;;;;;;54.43;23.03;;;;;;;-1.82;100.00;97265.06;10432438;28;20200;-62
2023/01/25 21:07:15;;;;;;;52.70;22.53;;;;;;;-1.63;100.00;97257.38;10412075;28;20232;-63
2023/01/25 21:12:16;;;;;;;45.73;20.70;;;;;;;-1.47;100.00;97256.69;10412239;28;20284;-63
2023/01/25 21:17:16;;;;;;;40.37;19.77;;;;;;;-1.77;100.00;97244.31;10423331;28;20219;-63
2023/01/25 21:22:17;;;;;;;36.83;18.70;;;;;;;-1.54;100.00;97229.63;10416054;28;20204;-63
2023/01/25 21:27:17;;;;;;;35.50;17.60;;;;;;;-1.55;100.00;97233.91;10411568;28;20280;-62
2023/01/25 21:32:17;;;;;;;38.00;19.57;;;;;;;-1.44;100.00;97231.72;10411650;28;20192;-62
2023/01/25 21:37:18;;;;;;;35.90;18.43;;;;;;;-1.40;100.00;97221.28;10410656;28;20307;-63
2023/01/25 21:42:18;;;;;;;35.70;17.57;;;;;;;-1.52;100.00;97223.50;10412139;28;20193;-63
2023/01/25 21:47:18;;;;;;;31.57;15.77;;;;;;;-1.62;100.00;97217.94;10410213;28;20204;-63
2023/01/25 21:52:19;;;;;;;29.30;15.33;;;;;;;-1.62;100.00;97201.72;10411495;28;20195;-63
2023/01/25 21:57:19;;;;;;;32.20;16.53;;;;;;;-1.77;100.00;97202.41;10410723;28;20773;-62
2023/01/25 22:02:19;;;;;;;34.70;16.67;;;;;;;-1.97;100.00;97191.28;10410955;28;20659;-63
2023/01/25 22:07:20;;;;;;;35.83;16.00;;;;;;;-1.92;100.00;97198.78;10409881;28;20572;-63
2023/01/25 22:12:20;;;;;;;33.40;16.07;;;;;;;-2.19;100.00;97189.63;10410695;28;20238;-63
2023/01/25 22:17:21;;;;;;;33.20;17.17;;;;;;;-2.22;100.00;97191.47;10410044;28;20303;-63
2023/01/25 22:22:21;;;;;;;35.53;16.90;;;;;;;-1.98;100.00;97195.59;10410640;28;20188;-63
2023/01/25 22:27:26;;;;;;;33.13;16.23;;;;;;;-1.72;100.00;97190.19;10409577;28;20290;-63
2023/01/25 22:32:26;;;;;;;33.37;16.93;;;;;;;-1.83;100.00;97188.91;10410284;28;20189;-63
2023/01/25 22:37:26;;;;;;;38.33;18.80;;;;;;;-2.08;100.00;97166.06;10409773;28;20216;-63
2023/01/25 22:42:27;;;;;;;43.37;18.63;;;;;;;-2.04;100.00;97166.75;10410199;28;20288;-63
2023/01/25 22:47:27;;;;;;;39.47;18.87;;;;;;;-1.95;100.00;97161.22;10409423;28;20184;-63